Takatori — JL6597 — position and weather

sailwx.info

Track history (hours):
 
Tides and Currents Weather Stations Pressure Air Temp Water Temp Dewpoint Dewpoint Depression Visibility Wind Speed Wind Dir Waves Ship Positions

Takatori

Last reported at 2017-Nov-19 21:27 UTC. Time now 2017-Nov-19 21:47 UTC.
Position N 34°39' E 135°15'.

Length 74 m; draft 4 m.

Type: Cargo ship. MMSI: 431501607.

Date/timePositionNaut miles runAvg speedWind from/ knotsBaromVisibWave heightAir tempDewpointWater temp
2017-Nov-19 21:27N 34°39' E 135°15'0 0.0
2017-Nov-19 20:57N 34°38' E 135°15'0 0.0
2017-Nov-19 20:27N 34°38' E 135°15'0 0.0
2017-Nov-19 19:57N 34°39' E 135°15'0 0.0
2017-Nov-19 19:27N 34°38' E 135°15'0 0.1
2017-Nov-19 18:57N 34°38' E 135°15'0 0.0
2017-Nov-19 18:27N 34°38' E 135°15'0 0.1
2017-Nov-19 17:57N 34°38' E 135°15'0 0.0
2017-Nov-19 17:27N 34°38' E 135°15'0 0.1
2017-Nov-19 16:51N 34°38' E 135°15'0 0.0
2017-Nov-19 16:09N 34°38' E 135°15'0 0.0
2017-Nov-19 15:57N 34°38' E 135°15'0 0.0
2017-Nov-19 15:27N 34°38' E 135°15'0 0.0
2017-Nov-19 14:57N 34°38' E 135°15'0 0.0
2017-Nov-19 14:27N 34°38' E 135°15'0 0.0
2017-Nov-19 13:45N 34°38' E 135°15'0 0.0
2017-Nov-19 13:27N 34°38' E 135°15'0 0.0
2017-Nov-19 12:51N 34°38' E 135°15'0 0.0
2017-Nov-19 12:27N 34°38' E 135°15'0 0.0
2017-Nov-19 11:51N 34°38' E 135°15'0 0.1
2017-Nov-19 11:29N 34°38' E 135°15'4 8.9
2017-Nov-19 10:59N 34°36' E 135°10'511.2
2017-Nov-19 10:30N 34°35' E 135°04'1 0.0
2017-Nov-17 07:26N 34°36' E 135°04'511.4
2017-Nov-17 07:00N 34°37' E 135°10'5 9.7
2017-Nov-17 06:29N 34°39' E 135°15'0 0.6
2017-Nov-17 05:46N 34°39' E 135°15'2 7.7
2017-Nov-17 05:30N 34°41' E 135°16'0 0.3
2017-Nov-17 04:44N 34°41' E 135°17'0 0.7
2017-Nov-17 04:30N 34°41' E 135°17'0 0.3
2017-Nov-17 03:58N 34°41' E 135°17'0 0.0
2017-Nov-17 03:28N 34°41' E 135°17'0 0.0
2017-Nov-17 02:52N 34°41' E 135°17'0 0.0
2017-Nov-17 02:28N 34°41' E 135°17'0 0.7
2017-Nov-17 02:00N 34°40' E 135°16'2 2.9
2017-Nov-17 01:26N 34°39' E 135°15'1 0.8
2017-Nov-17 00:46N 34°39' E 135°15'0 0.0
2017-Nov-17 00:28N 34°39' E 135°15'0 0.1
2017-Nov-17 00:00N 34°39' E 135°15'510.4
2017-Nov-16 23:29N 34°38' E 135°22'3 1.7
2017-Nov-16 21:51N 34°38' E 135°25'2 5.3
2017-Nov-16 21:31N 34°37' E 135°23'0 0.0
2017-Nov-16 19:43N 34°37' E 135°23'0 0.0
2017-Nov-16 19:25N 34°37' E 135°23'2 4.3
2017-Nov-16 19:00N 34°37' E 135°21'611.2
2017-Nov-16 18:30N 34°35' E 135°14'712.6
2017-Nov-16 17:57N 34°35' E 135°06'2 0.1
2017-Nov-15 03:34N 34°36' E 135°04'310.1
2017-Nov-15 03:19N 34°36' E 135°07'410.6
2017-Nov-15 02:59N 34°37' E 135°11'4 8.4
2017-Nov-15 02:30N 34°40' E 135°15'1 1.2
2017-Nov-15 02:00N 34°39' E 135°15'1 0.7
2017-Nov-15 01:13N 34°39' E 135°15'0 0.3
2017-Nov-15 01:00N 34°39' E 135°15'2 4.5
2017-Nov-15 00:27N 34°41' E 135°17'0 0.3
2017-Nov-14 23:50N 34°41' E 135°17'3 8.8
2017-Nov-14 23:30N 34°40' E 135°20'5 3.9
2017-Nov-14 22:20N 34°38' E 135°25'2 4.4
2017-Nov-14 21:59N 34°38' E 135°23'0 0.6
2017-Nov-14 21:27N 34°37' E 135°23'0 0.0
2017-Nov-14 20:45N 34°37' E 135°23'0 0.0
2017-Nov-14 20:27N 34°37' E 135°23'0 0.0
2017-Nov-14 19:51N 34°37' E 135°23'0 0.0
2017-Nov-14 19:27N 34°37' E 135°23'0 0.1
2017-Nov-14 18:45N 34°37' E 135°23'0 0.0
2017-Nov-14 18:21N 34°37' E 135°23'0 0.0
2017-Nov-14 17:57N 34°37' E 135°23'0 0.0
2017-Nov-14 17:27N 34°37' E 135°23'0 0.0
2017-Nov-14 16:51N 34°37' E 135°23'1 2.9
2017-Nov-14 16:30N 34°37' E 135°22'611.4
2017-Nov-14 16:00N 34°36' E 135°15'612.1
2017-Nov-14 15:29N 34°35' E 135°08'9 0.2
2017-Nov-13 01:56N 34°41' E 135°16'0 0.3
2017-Nov-13 01:27N 34°41' E 135°16'0 0.1
2017-Nov-13 00:51N 34°41' E 135°16'0 0.7
2017-Nov-13 00:30N 34°41' E 135°16'1 2.3
2017-Nov-13 00:00N 34°40' E 135°15'2 4.1
2017-Nov-12 23:26N 34°41' E 135°13'0 0.1
2017-Nov-12 22:56N 34°41' E 135°13'0 0.0
2017-Nov-12 22:26N 34°41' E 135°13'0 0.0
2017-Nov-12 21:56N 34°41' E 135°13'0 0.0
2017-Nov-12 21:20N 34°41' E 135°13'0 0.0
2017-Nov-12 20:44N 34°41' E 135°13'0 0.0
2017-Nov-12 20:26N 34°41' E 135°13'0 0.0
2017-Nov-12 19:56N 34°41' E 135°13'0 0.0
2017-Nov-12 19:26N 34°41' E 135°13'0 0.0
2017-Nov-12 18:56N 34°41' E 135°13'0 0.0
2017-Nov-12 18:26N 34°41' E 135°13'0 0.1
2017-Nov-12 17:50N 34°41' E 135°13'0 0.1
2017-Nov-12 17:14N 34°41' E 135°13'0 0.0
2017-Nov-12 16:56N 34°41' E 135°13'0 0.0
2017-Nov-12 16:26N 34°41' E 135°13'0 0.0
2017-Nov-12 15:56N 34°41' E 135°13'0 0.1
2017-Nov-12 15:26N 34°41' E 135°13'0 0.1
2017-Nov-12 14:56N 34°41' E 135°13'0 0.0
2017-Nov-12 14:26N 34°41' E 135°13'0 0.0
2017-Nov-12 13:56N 34°41' E 135°13'0 0.0
2017-Nov-12 13:26N 34°41' E 135°13'0 0.0
2017-Nov-12 12:56N 34°41' E 135°13'0 0.1
2017-Nov-12 12:26N 34°41' E 135°13'0 0.1
2017-Nov-12 11:56N 34°41' E 135°13'0 0.0
2017-Nov-12 11:26N 34°41' E 135°13'0 0.0
2017-Nov-12 10:50N 34°41' E 135°13'0 0.0
2017-Nov-12 10:26N 34°41' E 135°13'0 0.0
2017-Nov-12 09:56N 34°41' E 135°13'0 0.0
2017-Nov-12 09:20N 34°41' E 135°13'0 0.0
2017-Nov-12 08:56N 34°41' E 135°13'0 0.0
2017-Nov-12 08:26N 34°41' E 135°13'0 0.0
2017-Nov-12 07:56N 34°41' E 135°13'0 0.0
2017-Nov-12 07:27N 34°41' E 135°13'0 0.0
2017-Nov-12 06:56N 34°41' E 135°13'0 0.1
2017-Nov-12 06:26N 34°41' E 135°13'0 0.0
2017-Nov-12 05:57N 34°41' E 135°13'0 0.1
2017-Nov-12 05:26N 34°41' E 135°13'0 0.0
2017-Nov-12 04:45N 34°41' E 135°13'0 0.0
2017-Nov-12 04:26N 34°41' E 135°13'0 0.0
2017-Nov-12 03:51N 34°41' E 135°13'0 0.0
2017-Nov-12 03:27N 34°41' E 135°13'0 0.0
2017-Nov-12 02:57N 34°41' E 135°13'0 0.0
2017-Nov-12 02:27N 34°41' E 135°13'0 0.0
2017-Nov-12 01:57N 34°41' E 135°13'0 0.0
2017-Nov-12 01:27N 34°41' E 135°13'0 0.0
2017-Nov-12 00:57N 34°41' E 135°13'0 0.0
2017-Nov-12 00:27N 34°41' E 135°13'0 0.0
2017-Nov-11 23:57N 34°41' E 135°13'0 0.0
2017-Nov-11 23:27N 34°41' E 135°13'0 0.0
2017-Nov-11 22:33N 34°41' E 135°13'0 0.0
2017-Nov-11 22:27N 34°41' E 135°13'0 0.0
2017-Nov-11 21:57N 34°41' E 135°13'0 0.0
2017-Nov-11 21:27N 34°41' E 135°13'0 0.0
2017-Nov-11 20:57N 34°41' E 135°13'0 0.0
2017-Nov-11 20:27N 34°41' E 135°13'0 0.0
2017-Nov-11 19:57N 34°41' E 135°13'0 0.0
2017-Nov-11 19:27N 34°41' E 135°13'0 0.0
2017-Nov-11 18:57N 34°41' E 135°13'0 0.0
2017-Nov-11 18:27N 34°41' E 135°13'0 0.0
2017-Nov-11 17:57N 34°41' E 135°13'0 0.1
2017-Nov-11 17:27N 34°41' E 135°13'0 0.1
2017-Nov-11 16:57N 34°41' E 135°13'0 0.1
2017-Nov-11 16:21N 34°41' E 135°13'0 0.0
2017-Nov-11 15:57N 34°41' E 135°13'0 0.1
2017-Nov-11 15:27N 34°41' E 135°13'0 0.0
2017-Nov-11 14:57N 34°41' E 135°13'0 0.0
2017-Nov-11 14:27N 34°41' E 135°13'2 3.6
2017-Nov-11 13:59N 34°40' E 135°15'4 8.9
2017-Nov-11 13:30N 34°37' E 135°12'612.1
2017-Nov-11 13:00N 34°35' E 135°05'2 0.1
2017-Nov-10 06:12N 34°36' E 135°07'211.9
2017-Nov-10 06:00N 34°37' E 135°09'610.2
2017-Nov-10 05:27N 34°40' E 135°15'2 2.9
2017-Nov-10 04:50N 34°41' E 135°17'2 5.6
2017-Nov-10 04:30N 34°40' E 135°15'1 0.9
2017-Nov-10 03:50N 34°39' E 135°15'0 0.0
2017-Nov-10 03:26N 34°39' E 135°15'0 0.0
2017-Nov-10 02:56N 34°39' E 135°15'0 0.0
2017-Nov-10 02:26N 34°39' E 135°15'0 1.1
2017-Nov-10 02:00N 34°39' E 135°15'0 0.7
2017-Nov-10 01:30N 34°39' E 135°15'0 0.1
2017-Nov-10 00:48N 34°39' E 135°15'1 4.5
2017-Nov-10 00:30N 34°38' E 135°17'611.4
2017-Nov-09 23:59N 34°38' E 135°24'1 0.8
2017-Nov-09 23:16N 34°38' E 135°25'0 0.0
2017-Nov-09 22:58N 34°38' E 135°25'0 0.0
2017-Nov-09 22:22N 34°38' E 135°25'2 4.8
2017-Nov-09 22:00N 34°38' E 135°23'511.0
2017-Nov-09 21:30N 34°36' E 135°17'  
Track history (hours):
 
Tides and Currents Weather Stations Pressure Air Temp Water Temp Dewpoint Dewpoint Depression Visibility Wind Speed Wind Dir Waves Ship Positions

Takatori

Last reported at 2017-Nov-19 21:27 UTC. Time now 2017-Nov-19 21:47 UTC.
Position N 34°39' E 135°15'.

Length 74 m; draft 4 m.

Type: Cargo ship. MMSI: 431501607.

Date/timePositionNaut miles runAvg speedWind from/ knotsBaromVisibWave heightAir tempDewpointWater temp
2017-Nov-19 21:27N 34°39' E 135°15'0 0.0
2017-Nov-19 20:57N 34°38' E 135°15'0 0.0
2017-Nov-19 20:27N 34°38' E 135°15'0 0.0
2017-Nov-19 19:57N 34°39' E 135°15'0 0.0
2017-Nov-19 19:27N 34°38' E 135°15'0 0.1
2017-Nov-19 18:57N 34°38' E 135°15'0 0.0
2017-Nov-19 18:27N 34°38' E 135°15'0 0.1
2017-Nov-19 17:57N 34°38' E 135°15'0 0.0
2017-Nov-19 17:27N 34°38' E 135°15'0 0.1
2017-Nov-19 16:51N 34°38' E 135°15'0 0.0
2017-Nov-19 16:09N 34°38' E 135°15'0 0.0
2017-Nov-19 15:57N 34°38' E 135°15'0 0.0
2017-Nov-19 15:27N 34°38' E 135°15'0 0.0
2017-Nov-19 14:57N 34°38' E 135°15'0 0.0
2017-Nov-19 14:27N 34°38' E 135°15'0 0.0
2017-Nov-19 13:45N 34°38' E 135°15'0 0.0
2017-Nov-19 13:27N 34°38' E 135°15'0 0.0
2017-Nov-19 12:51N 34°38' E 135°15'0 0.0
2017-Nov-19 12:27N 34°38' E 135°15'0 0.0
2017-Nov-19 11:51N 34°38' E 135°15'0 0.1
2017-Nov-19 11:29N 34°38' E 135°15'4 8.9
2017-Nov-19 10:59N 34°36' E 135°10'511.2
2017-Nov-19 10:30N 34°35' E 135°04'1 0.0
2017-Nov-17 07:26N 34°36' E 135°04'511.4
2017-Nov-17 07:00N 34°37' E 135°10'5 9.7
2017-Nov-17 06:29N 34°39' E 135°15'0 0.6
2017-Nov-17 05:46N 34°39' E 135°15'2 7.7
2017-Nov-17 05:30N 34°41' E 135°16'0 0.3
2017-Nov-17 04:44N 34°41' E 135°17'0 0.7
2017-Nov-17 04:30N 34°41' E 135°17'0 0.3
2017-Nov-17 03:58N 34°41' E 135°17'0 0.0
2017-Nov-17 03:28N 34°41' E 135°17'0 0.0
2017-Nov-17 02:52N 34°41' E 135°17'0 0.0
2017-Nov-17 02:28N 34°41' E 135°17'0 0.7
2017-Nov-17 02:00N 34°40' E 135°16'2 2.9
2017-Nov-17 01:26N 34°39' E 135°15'1 0.8
2017-Nov-17 00:46N 34°39' E 135°15'0 0.0
2017-Nov-17 00:28N 34°39' E 135°15'0 0.1
2017-Nov-17 00:00N 34°39' E 135°15'510.4
2017-Nov-16 23:29N 34°38' E 135°22'3 1.7
2017-Nov-16 21:51N 34°38' E 135°25'2 5.3
2017-Nov-16 21:31N 34°37' E 135°23'0 0.0
2017-Nov-16 19:43N 34°37' E 135°23'0 0.0
2017-Nov-16 19:25N 34°37' E 135°23'2 4.3
2017-Nov-16 19:00N 34°37' E 135°21'611.2
2017-Nov-16 18:30N 34°35' E 135°14'712.6
2017-Nov-16 17:57N 34°35' E 135°06'2 0.1
2017-Nov-15 03:34N 34°36' E 135°04'310.1
2017-Nov-15 03:19N 34°36' E 135°07'410.6
2017-Nov-15 02:59N 34°37' E 135°11'4 8.4
2017-Nov-15 02:30N 34°40' E 135°15'1 1.2
2017-Nov-15 02:00N 34°39' E 135°15'1 0.7
2017-Nov-15 01:13N 34°39' E 135°15'0 0.3
2017-Nov-15 01:00N 34°39' E 135°15'2 4.5
2017-Nov-15 00:27N 34°41' E 135°17'0 0.3
2017-Nov-14 23:50N 34°41' E 135°17'3 8.8
2017-Nov-14 23:30N 34°40' E 135°20'5 3.9
2017-Nov-14 22:20N 34°38' E 135°25'2 4.4
2017-Nov-14 21:59N 34°38' E 135°23'0 0.6
2017-Nov-14 21:27N 34°37' E 135°23'0 0.0
2017-Nov-14 20:45N 34°37' E 135°23'0 0.0
2017-Nov-14 20:27N 34°37' E 135°23'0 0.0
2017-Nov-14 19:51N 34°37' E 135°23'0 0.0
2017-Nov-14 19:27N 34°37' E 135°23'0 0.1
2017-Nov-14 18:45N 34°37' E 135°23'0 0.0
2017-Nov-14 18:21N 34°37' E 135°23'0 0.0
2017-Nov-14 17:57N 34°37' E 135°23'0 0.0
2017-Nov-14 17:27N 34°37' E 135°23'0 0.0
2017-Nov-14 16:51N 34°37' E 135°23'1 2.9
2017-Nov-14 16:30N 34°37' E 135°22'611.4
2017-Nov-14 16:00N 34°36' E 135°15'612.1
2017-Nov-14 15:29N 34°35' E 135°08'9 0.2
2017-Nov-13 01:56N 34°41' E 135°16'0 0.3
2017-Nov-13 01:27N 34°41' E 135°16'0 0.1
2017-Nov-13 00:51N 34°41' E 135°16'0 0.7
2017-Nov-13 00:30N 34°41' E 135°16'1 2.3
2017-Nov-13 00:00N 34°40' E 135°15'2 4.1
2017-Nov-12 23:26N 34°41' E 135°13'0 0.1
2017-Nov-12 22:56N 34°41' E 135°13'0 0.0
2017-Nov-12 22:26N 34°41' E 135°13'0 0.0
2017-Nov-12 21:56N 34°41' E 135°13'0 0.0
2017-Nov-12 21:20N 34°41' E 135°13'0 0.0
2017-Nov-12 20:44N 34°41' E 135°13'0 0.0
2017-Nov-12 20:26N 34°41' E 135°13'0 0.0
2017-Nov-12 19:56N 34°41' E 135°13'0 0.0
2017-Nov-12 19:26N 34°41' E 135°13'0 0.0
2017-Nov-12 18:56N 34°41' E 135°13'0 0.0
2017-Nov-12 18:26N 34°41' E 135°13'0 0.1
2017-Nov-12 17:50N 34°41' E 135°13'0 0.1
2017-Nov-12 17:14N 34°41' E 135°13'0 0.0
2017-Nov-12 16:56N 34°41' E 135°13'0 0.0
2017-Nov-12 16:26N 34°41' E 135°13'0 0.0
2017-Nov-12 15:56N 34°41' E 135°13'0 0.1
2017-Nov-12 15:26N 34°41' E 135°13'0 0.1
2017-Nov-12 14:56N 34°41' E 135°13'0 0.0
2017-Nov-12 14:26N 34°41' E 135°13'0 0.0
2017-Nov-12 13:56N 34°41' E 135°13'0 0.0
2017-Nov-12 13:26N 34°41' E 135°13'0 0.0
2017-Nov-12 12:56N 34°41' E 135°13'0 0.1
2017-Nov-12 12:26N 34°41' E 135°13'0 0.1
2017-Nov-12 11:56N 34°41' E 135°13'0 0.0
2017-Nov-12 11:26N 34°41' E 135°13'0 0.0
2017-Nov-12 10:50N 34°41' E 135°13'0 0.0
2017-Nov-12 10:26N 34°41' E 135°13'0 0.0
2017-Nov-12 09:56N 34°41' E 135°13'0 0.0
2017-Nov-12 09:20N 34°41' E 135°13'0 0.0
2017-Nov-12 08:56N 34°41' E 135°13'0 0.0
2017-Nov-12 08:26N 34°41' E 135°13'0 0.0
2017-Nov-12 07:56N 34°41' E 135°13'0 0.0
2017-Nov-12 07:27N 34°41' E 135°13'0 0.0
2017-Nov-12 06:56N 34°41' E 135°13'0 0.1
2017-Nov-12 06:26N 34°41' E 135°13'0 0.0
2017-Nov-12 05:57N 34°41' E 135°13'0 0.1
2017-Nov-12 05:26N 34°41' E 135°13'0 0.0
2017-Nov-12 04:45N 34°41' E 135°13'0 0.0
2017-Nov-12 04:26N 34°41' E 135°13'0 0.0
2017-Nov-12 03:51N 34°41' E 135°13'0 0.0
2017-Nov-12 03:27N 34°41' E 135°13'0 0.0
2017-Nov-12 02:57N 34°41' E 135°13'0 0.0
2017-Nov-12 02:27N 34°41' E 135°13'0 0.0
2017-Nov-12 01:57N 34°41' E 135°13'0 0.0
2017-Nov-12 01:27N 34°41' E 135°13'0 0.0
2017-Nov-12 00:57N 34°41' E 135°13'0 0.0
2017-Nov-12 00:27N 34°41' E 135°13'0 0.0
2017-Nov-11 23:57N 34°41' E 135°13'0 0.0
2017-Nov-11 23:27N 34°41' E 135°13'0 0.0
2017-Nov-11 22:33N 34°41' E 135°13'0 0.0
2017-Nov-11 22:27N 34°41' E 135°13'0 0.0
2017-Nov-11 21:57N 34°41' E 135°13'0 0.0
2017-Nov-11 21:27N 34°41' E 135°13'0 0.0
2017-Nov-11 20:57N 34°41' E 135°13'0 0.0
2017-Nov-11 20:27N 34°41' E 135°13'0 0.0
2017-Nov-11 19:57N 34°41' E 135°13'0 0.0
2017-Nov-11 19:27N 34°41' E 135°13'0 0.0
2017-Nov-11 18:57N 34°41' E 135°13'0 0.0
2017-Nov-11 18:27N 34°41' E 135°13'0 0.0
2017-Nov-11 17:57N 34°41' E 135°13'0 0.1
2017-Nov-11 17:27N 34°41' E 135°13'0 0.1
2017-Nov-11 16:57N 34°41' E 135°13'0 0.1
2017-Nov-11 16:21N 34°41' E 135°13'0 0.0
2017-Nov-11 15:57N 34°41' E 135°13'0 0.1
2017-Nov-11 15:27N 34°41' E 135°13'0 0.0
2017-Nov-11 14:57N 34°41' E 135°13'0 0.0
2017-Nov-11 14:27N 34°41' E 135°13'2 3.6
2017-Nov-11 13:59N 34°40' E 135°15'4 8.9
2017-Nov-11 13:30N 34°37' E 135°12'612.1
2017-Nov-11 13:00N 34°35' E 135°05'2 0.1
2017-Nov-10 06:12N 34°36' E 135°07'211.9
2017-Nov-10 06:00N 34°37' E 135°09'610.2
2017-Nov-10 05:27N 34°40' E 135°15'2 2.9
2017-Nov-10 04:50N 34°41' E 135°17'2 5.6
2017-Nov-10 04:30N 34°40' E 135°15'1 0.9
2017-Nov-10 03:50N 34°39' E 135°15'0 0.0
2017-Nov-10 03:26N 34°39' E 135°15'0 0.0
2017-Nov-10 02:56N 34°39' E 135°15'0 0.0
2017-Nov-10 02:26N 34°39' E 135°15'0 1.1
2017-Nov-10 02:00N 34°39' E 135°15'0 0.7
2017-Nov-10 01:30N 34°39' E 135°15'0 0.1
2017-Nov-10 00:48N 34°39' E 135°15'1 4.5
2017-Nov-10 00:30N 34°38' E 135°17'611.4
2017-Nov-09 23:59N 34°38' E 135°24'1 0.8
2017-Nov-09 23:16N 34°38' E 135°25'0 0.0
2017-Nov-09 22:58N 34°38' E 135°25'0 0.0
2017-Nov-09 22:22N 34°38' E 135°25'2 4.8
2017-Nov-09 22:00N 34°38' E 135°23'511.0
2017-Nov-09 21:30N 34°36' E 135°17'  

Dump ship's entire track history